Airfield :
LOGIN :

Register | Disclaimer

   EN    FR    IT 

 










Legend :    VFR   Marginal VFR   IFR   Intensive IFR   Very Intensive IFR
Visi :
Ceiling :
>= 8 km
>= 3000ft
5 to 8 km
1000 to 3000 ft
1500m to 5 km
500 to 1000 ft
800 to 1500m
200 to 500 ft
< 800m
< 200 ft
Symbols :   Thunderstorms  Fog  Heavy snow  Heavy precipitations  Wind > 20 kt
SIGMETs :     Misc.  Thunderstorms  Icing  Turbulence  Mountain Waves  Volcanic Ashes






- Airport Elevation : 586 ft
- IATA code : IEV


UKKK - Zhuliany

CURRENT METAR :
  • 040900Z 24006MPS 9999 FEW042CB 17/09 Q1005 R26/70D TEMPO VRB10G18MPS 2000 TSRAGR SQ BKN015CB

EXPIRED METARs :
  • 040830Z 23005MPS 190V260 9999 FEW045CB 16/08 Q1005 R26/CLRD70 TEMPO VRB10G18MPS 2000 TSRAGR SQ BKN015CB
  • 040800Z 22004MPS 180V260 9999 FEW036CB 16/08 Q1005 R26/190060 TEMPO VRB10G18MPS 2000 TSRAGR SQ BKN015CB
  • 040730Z 23004MPS 180V270 9999 BKN040 16/08 Q1004 R26/190060 NOSIG
  • 040700Z 23003MPS 180V270 9999 BKN035 15/08 Q1004 R26/190060 NOSIG
  • 040630Z 23003MPS 170V270 9999 SCT043 16/09 Q1004 R26/190060 NOSIG

TAF TAF UKKK
Valid from the 04 at 06:00 until the 05 at 06:00 UTC


040505Z 0406/0506 20005G11MPS 9999 BKN020
TEMPO 0406/0408 -SHRA SCT015CB
TEMPO 0408/0418 VRB10G18MPS 1200 TSRAGR SQ BKN007 BKN015CB
TEMPO 0418/0506 18008G14MPS 2000 -SHRA BR BKN006 BKN012CB



MET'MAP, your aeronautical weather chart ! - Copyright ORBIFLY December 2007 - Disclaimer

ORBIFLY MET'MAP TEAM :

Programming & Development : Alexandra Zaïnal
Concept & original design : Baudouin d'Aumeries
Assistance for programming : Marc-Olivier Méhu
Technical & hardware support : Manuel Goepfert

Contact : metmap@orbifly.com




SOURCES & CREDITS :

   NOAA